Terminal Aerodrome Forecast
Issued by NWS Charleston, SC

Home | Current Version | Previous Version | Text Only | Print | Product List | Glossary On
Versions: 1 2 3 4 5 6 7 8 9 10 11 12 13
000
FTUS42 KCHS 231720
TAFCHS
TAF
KCHS 231720Z 2318/2418 16013G20KT P6SM SCT040 SCT200
     FM240000 17009KT P6SM FEW020 BKN100
     FM240500 16010KT 6SM SHRA BR SCT025 BKN080
     FM240900 17012KT 4SM RA BR SCT010 BKN025=

USA.gov is the U.S. government's official web portal to all federal, state and local government web resources and services.